Pleasantville, New York
Current Conditions -  °F | °C
As of 6:56 AM on Friday 24 Oct 2014 (Local Time) from KHPN Reporting Station
Drizzle Drizzle  
Wind Chill:   Ceiling: 9000
Heat Index:   Visibility: 10mi
Dew Point:   Wind: 8mph
Humidity: 83%   Direction: 310°NW
Pressure: 29.78"   Gusts: NA
Location:  41.13°N, 73.79°W
Report Text: KHPN 241056Z 31007KT 10SM -DZ FEW070 BKN090 09/07 A2978 RMK AO2 RAE52DZB52 SLP086 P0000 T00940067
Loading
Personal Weather Stations






























Interactive Weather Map
Tropical Storm Tracking
New forecast layout! Learn more

10-Day Weather Forecast

Advertisements
Track Severe Weather on mobile